地図

経路データ

SID SEASON NUMBER BASIN SUBBASIN NAME ISO_TIME NATURE LAT LON WMO_WIND WMO_PRES WMO_AGENCY TRACK_TYPE DIST2LAND LANDFALL IFLAG USA_AGENCY USA_ATCF_ID USA_LAT USA_LON USA_RECORD USA_STATUS USA_WIND USA_PRES USA_SSHS USA_R34_NE USA_R34_SE USA_R34_SW USA_R34_NW USA_R50_NE USA_R50_SE USA_R50_SW USA_R50_NW USA_R64_NE USA_R64_SE USA_R64_SW USA_R64_NW USA_POCI USA_ROCI USA_RMW USA_EYE TOKYO_LAT TOKYO_LON TOKYO_GRADE TOKYO_WIND TOKYO_PRES TOKYO_R50_DIR TOKYO_R50_LONG TOKYO_R50_SHORT TOKYO_R30_DIR TOKYO_R30_LONG TOKYO_R30_SHORT TOKYO_LAND CMA_LAT CMA_LON CMA_CAT CMA_WIND CMA_PRES HKO_LAT HKO_LON HKO_CAT HKO_WIND HKO_PRES NEWDELHI_LAT NEWDELHI_LON NEWDELHI_GRADE NEWDELHI_WIND NEWDELHI_PRES NEWDELHI_CI NEWDELHI_DP NEWDELHI_POCI REUNION_LAT REUNION_LON REUNION_TYPE REUNION_WIND REUNION_PRES REUNION_TNUM REUNION_CI REUNION_RMW REUNION_R34_NE REUNION_R34_SE REUNION_R34_SW REUNION_R34_NW REUNION_R50_NE REUNION_R50_SE REUNION_R50_SW REUNION_R50_NW REUNION_R64_NE REUNION_R64_SE REUNION_R64_SW REUNION_R64_NW BOM_LAT BOM_LON BOM_TYPE BOM_WIND BOM_PRES BOM_TNUM BOM_CI BOM_RMW BOM_R34_NE BOM_R34_SE BOM_R34_SW BOM_R34_NW BOM_R50_NE BOM_R50_SE BOM_R50_SW BOM_R50_NW BOM_R64_NE BOM_R64_SE BOM_R64_SW BOM_R64_NW BOM_ROCI BOM_POCI BOM_EYE BOM_POS_METHOD BOM_PRES_METHOD NADI_LAT NADI_LON NADI_CAT NADI_WIND NADI_PRES WELLINGTON_LAT WELLINGTON_LON WELLINGTON_WIND WELLINGTON_PRES DS824_LAT DS824_LON DS824_STAGE DS824_WIND DS824_PRES TD9636_LAT TD9636_LON TD9636_STAGE TD9636_WIND TD9636_PRES TD9635_LAT TD9635_LON TD9635_WIND TD9635_PRES TD9635_ROCI NEUMANN_LAT NEUMANN_LON NEUMANN_CLASS NEUMANN_WIND NEUMANN_PRES MLC_LAT MLC_LON MLC_CLASS MLC_WIND MLC_PRES USA_GUST BOM_GUST BOM_GUST_PER REUNION_GUST REUNION_GUST_PER USA_SEAHGT USA_SEARAD_NE USA_SEARAD_SE USA_SEARAD_SW USA_SEARAD_NW STORM_SPEED STORM_DIR
1893070S10061 1893 9 SI MM NOT_NAMED 1893-03-11 00:00:00 TS -10.3000 60.7000 main 1143 1110 _________O____ -1 -10.3000 60.7000 TC 7 171
1893070S10061 1893 9 SI MM NOT_NAMED 1893-03-11 03:00:00 TS -10.6625 60.7500 main 1100 1071 _________P____ -1 -10.6625 60.7500 TC 7 172
1893070S10061 1893 9 SI MM NOT_NAMED 1893-03-11 06:00:00 TS -11.0000 60.8000 main 1071 1039 _________O____ -1 -11.0000 60.8000 TC 7 171
1893070S10061 1893 9 SI MM NOT_NAMED 1893-03-11 09:00:00 TS -11.3000 60.8500 main 1042 1010 _________P____ -1 -11.3000 60.8500 TC 6 171
1893070S10061 1893 9 SI MM NOT_NAMED 1893-03-11 12:00:00 TS -11.6000 60.9000 main 1010 979 _________O____ -1 -11.6000 60.9000 TC 7 172
1893070S10061 1893 9 SI MM NOT_NAMED 1893-03-11 15:00:00 TS -11.9425 60.9425 main 979 941 _________P____ -1 -11.9425 60.9425 TC 7 172
1893070S10061 1893 9 SI MM NOT_NAMED 1893-03-11 18:00:00 TS -12.3000 61.0000 main 941 914 _________O____ -1 -12.3000 61.0000 TC 7 168
1893070S10061 1893 9 SI MM NOT_NAMED 1893-03-11 21:00:00 TS -12.6350 61.1000 main 914 877 _________P____ -1 -12.6350 61.1000 TC 7 165
1893070S10061 1893 9 SI MM NOT_NAMED 1893-03-12 00:00:00 TS -13.0000 61.2000 main 877 837 _________O____ -1 -13.0000 61.2000 TC 8 169
1893070S10061 1893 9 SI MM NOT_NAMED 1893-03-12 03:00:00 TS -13.4350 61.2501 main 842 792 _________P____ -1 -13.4350 61.2501 TC 9 174
1893070S10061 1893 9 SI MM NOT_NAMED 1893-03-12 06:00:00 TS -13.9000 61.3000 main 792 758 _________O____ -1 -13.9000 61.3000 TC 9 172
1893070S10061 1893 9 SI MM NOT_NAMED 1893-03-12 09:00:00 TS -14.3500 61.3850 main 758 717 _________P____ -1 -14.3500 61.3850 TC 9 168
1893070S10061 1893 9 SI MM NOT_NAMED 1893-03-12 12:00:00 TS -14.8000 61.5000 main 717 686 _________O____ -1 -14.8000 61.5000 TC 9 165
1893070S10061 1893 9 SI MM NOT_NAMED 1893-03-12 15:00:00 TS -15.2500 61.6425 main 686 656 _________P____ -1 -15.2500 61.6425 TC 10 162
1893070S10061 1893 9 SI MM NOT_NAMED 1893-03-12 18:00:00 TS -15.7000 61.8000 main 656 630 _________O____ -1 -15.7000 61.8000 TC 9 162
1893070S10061 1893 9 SI MM NOT_NAMED 1893-03-12 21:00:00 TS -16.1350 61.9427 main 630 607 _________P____ -1 -16.1350 61.9427 TC 10 162
1893070S10061 1893 9 SI MM NOT_NAMED 1893-03-13 00:00:00 TS -16.6000 62.1000 main 607 587 _________O____ -1 -16.6000 62.1000 TC 11 162
1893070S10061 1893 9 SI MM NOT_NAMED 1893-03-13 03:00:00 TS -17.1425 62.2851 main 589 568 _________P____ -1 -17.1425 62.2851 TC 12 161
1893070S10061 1893 9 SI MM NOT_NAMED 1893-03-13 06:00:00 TS -17.7000 62.5000 main 571 565 _________O____ -1 -17.7000 62.5000 TC 12 158
1893070S10061 1893 9 SI MM NOT_NAMED 1893-03-13 09:00:00 TS -18.2075 62.7352 main 565 565 _________P____ -1 -18.2075 62.7352 TC 11 155
1893070S10061 1893 9 SI MM NOT_NAMED 1893-03-13 12:00:00 TS -18.7000 63.0000 main 573 570 _________O____ -1 -18.7000 63.0000 TC 11 152
1893070S10061 1893 9 SI MM NOT_NAMED 1893-03-13 15:00:00 TS -19.2075 63.2926 main 588 586 _________P____ -1 -19.2075 63.2926 TC 12 150
1893070S10061 1893 9 SI MM NOT_NAMED 1893-03-13 18:00:00 TS -19.7000 63.6000 main 609 608 _________O____ -1 -19.7000 63.6000 TC 11 149
1893070S10061 1893 9 SI MM NOT_NAMED 1893-03-13 21:00:00 TS -20.1349 63.8855 main 636 636 _________P____ -1 -20.1349 63.8855 TC 11 148
1893070S10061 1893 9 SI MM NOT_NAMED 1893-03-14 00:00:00 TS -20.6000 64.2000 main 667 667 _________O____ -1 -20.6000 64.2000 TC 12 148
1893070S10061 1893 9 SI MM NOT_NAMED 1893-03-14 03:00:00 TS -21.1775 64.5850 main 714 714 _________P____ -1 -21.1775 64.5850 TC 14 148
1893070S10061 1893 9 SI MM NOT_NAMED 1893-03-14 06:00:00 TS -21.8000 65.0000 main 765 765 _________O____ -1 -21.8000 65.0000 TC 14 149
1893070S10061 1893 9 SI MM NOT_NAMED 1893-03-14 09:00:00 TS -22.3922 65.3782 main 821 821 _________P____ -1 -22.3922 65.3782 TC 14 148
1893070S10061 1893 9 SI MM NOT_NAMED 1893-03-14 12:00:00 TS -23.0000 65.8000 main 879 879 _________O____ -1 -23.0000 65.8000 TC 15 145
1893070S10061 1893 9 SI MM NOT_NAMED 1893-03-14 15:00:00 TS -23.6424 66.3203 main 950 950 _________P____ -1 -23.6424 66.3203 TC 17 142
1893070S10061 1893 9 SI MM NOT_NAMED 1893-03-14 18:00:00 TS -24.3000 66.9000 main 1036 1036 _________O____ -1 -24.3000 66.9000 TC 17 141
1893070S10061 1893 9 SI MM NOT_NAMED 1893-03-14 21:00:00 TS -24.9529 67.4963 main 1122 1122 _________P____ -1 -24.9529 67.4963 TC 17 140
1893070S10061 1893 9 SI MM NOT_NAMED 1893-03-15 00:00:00 TS -25.6000 68.1000 main 1206 _________O____ -1 -25.6000 68.1000 TC 17 140

IBTrACS Databaseについて

本データベースは、米国NOAAが公開する1842年以降の世界の熱帯低気圧のベストトラックデータアーカイブInternational Best Track Archive for Climate Stewardship (IBTrACS)を、ウェブで閲覧しやすい形式に変換したものです。

最終更新日:2021-10-08